Latest Weather Observations for St Kilda Harbour RMYS

IDV60801

Issued at 5:31 am EST Tuesday 1 September 2015 (issued every 30 minutes, with the page automatically refreshed every 10 minutes)

About weather observations | Map of weather stations | Latest weather observations for VIC | Other Formats
Station Details ID: 086220 Name: ST KILDA HARBOUR - RMYS Lat: -37.86 Lon: 144.96 Height: 6.4 m
Data from the previous 72 hours. | See also: Recent months for locations in Victoria
Date/Time
EST
Temp
°C
App
Temp
°C
Dew
Point
Rel
Hum
%
Delta-T
°C
Wind Press
QNH
hPa
Press
MSL
hPa
Rain
since 9 am
mm
Dir
 
Spd
km/h
Gust
km/h
Spd
kts
Gust
kts
01/05:30am - - - - - E 4 6 2 3 - - -
01/05:00am - - - - - ENE 6 11 3 6 - - -
01/04:30am - - - - - S 6 7 3 4 - - -
01/04:00am - - - - - SW 4 7 2 4 - - -
01/03:30am - - - - - SSW 7 11 4 6 - - -
01/03:00am - - - - - NE 2 7 1 4 - - -
01/02:30am - - - - - SSW 7 15 4 8 - - -
01/02:00am - - - - - S 7 11 4 6 - - -
01/01:30am - - - - - WSW 9 13 5 7 - - -
01/01:00am - - - - - ENE 2 4 1 2 - - -
01/12:30am - - - - - ESE 6 11 3 6 - - -
01/12:00am - - - - - ESE 7 15 4 8 - - -
 
Date/Time
EST
Temp
°C
App
Temp
°C
Dew
Point
Rel
Hum
%
Delta-T
°C
Wind Press
QNH
hPa
Press
MSL
hPa
Rain
since 9 am
mm
Dir
 
Spd
km/h
Gust
km/h
Spd
kts
Gust
kts
31/11:30pm - - - - - E 4 11 2 6 - - -
31/11:00pm - - - - - SSE 7 13 4 7 - - -
31/10:30pm - - - - - SE 7 11 4 6 - - -
31/10:00pm - - - - - S 9 13 5 7 - - -
31/09:30pm - - - - - S 11 13 6 7 - - -
31/09:00pm - - - - - S 7 11 4 6 - - -
31/08:30pm - - - - - SSE 15 19 8 10 - - -
31/08:00pm - - - - - SSE 19 22 10 12 - - -
31/07:30pm - - - - - S 17 20 9 11 - - -
31/07:00pm - - - - - S 19 22 10 12 - - -
31/06:30pm - - - - - S 20 22 11 12 - - -
31/06:00pm - - - - - S 22 24 12 13 - - -
31/05:30pm - - - - - S 22 26 12 14 - - -
31/05:00pm - - - - - S 22 26 12 14 - - -
31/04:30pm - - - - - SSW 24 28 13 15 - - -
31/04:00pm - - - - - SSW 24 28 13 15 - - -
31/03:30pm - - - - - SW 22 26 12 14 - - -
31/03:00pm - - - - - SSW 20 24 11 13 - - -
31/02:30pm - - - - - SSW 19 22 10 12 - - -
31/02:00pm - - - - - SSW 19 20 10 11 - - -
31/01:30pm - - - - - SSW 19 22 10 12 - - -
31/01:00pm - - - - - SSW 15 17 8 9 - - -
31/12:30pm - - - - - SW 13 19 7 10 - - -
31/12:00pm - - - - - SW 17 19 9 10 - - -
31/11:30am - - - - - SSW 17 20 9 11 - - -
31/11:00am - - - - - SSW 15 20 8 11 - - -
31/10:30am - - - - - SSW 13 19 7 10 - - -
31/10:00am - - - - - SW 20 22 11 12 - - -
31/09:30am - - - - - WSW 19 22 10 12 - - -
31/09:00am - - - - - WSW 17 20 9 11 - - -
31/08:30am - - - - - WSW 17 20 9 11 - - -
31/08:00am - - - - - WSW 15 17 8 9 - - -
31/07:30am - - - - - WSW 17 19 9 10 - - -
31/07:00am - - - - - W 17 20 9 11 - - -
31/06:30am - - - - - W 15 19 8 10 - - -
31/06:00am - - - - - W 19 24 10 13 - - -
31/05:30am - - - - - W 20 24 11 13 - - -
31/05:00am - - - - - WSW 24 26 13 14 - - -
31/04:30am - - - - - WSW 22 28 12 15 - - -
31/04:00am - - - - - WSW 26 30 14 16 - - -
31/03:30am - - - - - WSW 22 24 12 13 - - -
31/03:00am - - - - - WSW 17 20 9 11 - - -
31/02:30am - - - - - W 22 26 12 14 - - -
31/02:00am - - - - - W 13 20 7 11 - - -
31/01:30am - - - - - WSW 19 22 10 12 - - -
31/01:00am - - - - - WSW 26 32 14 17 - - -
31/12:30am - - - - - SW 19 24 10 13 - - -
31/12:00am - - - - - SSW 28 32 15 17 - - -
 
Date/Time
EST
Temp
°C
App
Temp
°C
Dew
Point
Rel
Hum
%
Delta-T
°C
Wind Press
QNH
hPa
Press
MSL
hPa
Rain
since 9 am
mm
Dir
 
Spd
km/h
Gust
km/h
Spd
kts
Gust
kts
30/11:30pm - - - - - SSW 19 24 10 13 - - -
30/11:00pm - - - - - SSW 19 24 10 13 - - -
30/10:30pm - - - - - SSW 28 35 15 19 - - -
30/10:00pm - - - - - SSW 20 24 11 13 - - -
30/09:30pm - - - - - SSW 24 32 13 17 - - -
30/09:00pm - - - - - SSW 24 28 13 15 - - -
30/08:30pm - - - - - SSW 24 28 13 15 - - -
30/08:00pm - - - - - S 19 22 10 12 - - -
30/07:30pm - - - - - S 20 24 11 13 - - -
30/07:00pm - - - - - S 22 24 12 13 - - -
30/06:30pm - - - - - S 24 28 13 15 - - -
30/06:00pm - - - - - SSW 22 28 12 15 - - -
30/05:30pm - - - - - SSW 26 32 14 17 - - -
30/05:00pm - - - - - SSW 22 28 12 15 - - -
30/04:30pm - - - - - S 24 26 13 14 - - -
30/04:00pm - - - - - S 24 30 13 16 - - -
30/03:30pm - - - - - S 28 33 15 18 - - -
30/03:00pm - - - - - S 28 32 15 17 - - -
30/02:30pm - - - - - S 28 32 15 17 - - -
30/02:00pm - - - - - SSW 30 35 16 19 - - -
30/01:30pm - - - - - SSW 28 32 15 17 - - -
30/01:00pm - - - - - SSW 28 30 15 16 - - -
30/12:30pm - - - - - SSW 24 28 13 15 - - -
30/12:00pm - - - - - SSW 20 24 11 13 - - -
30/11:30am - - - - - SSW 19 20 10 11 - - -
30/11:00am - - - - - SSW 19 20 10 11 - - -
30/10:30am - - - - - SSW 17 20 9 11 - - -
30/10:00am - - - - - SSW 17 20 9 11 - - -
30/09:30am - - - - - SSW 15 17 8 9 - - -
30/09:00am - - - - - WSW 17 24 9 13 - - -
30/08:30am - - - - - WSW 24 30 13 16 - - -
30/08:00am - - - - - WSW 22 26 12 14 - - -
30/07:30am - - - - - WSW 20 28 11 15 - - -
30/07:00am - - - - - WSW 24 35 13 19 - - -
30/06:30am - - - - - WSW 26 30 14 16 - - -
30/06:00am - - - - - SW 24 33 13 18 - - -
30/05:30am - - - - - WSW 22 26 12 14 - - -
30/05:00am - - - - - SW 22 30 12 16 - - -
30/04:30am - - - - - SSW 26 39 14 21 - - -
30/04:00am - - - - - SSW 19 24 10 13 - - -
30/03:30am - - - - - SSW 22 30 12 16 - - -
30/03:00am - - - - - SW 26 32 14 17 - - -
30/02:30am - - - - - SSW 33 39 18 21 - - -
30/02:00am - - - - - SSW 32 37 17 20 - - -
30/01:30am - - - - - S 32 39 17 21 - - -
30/01:00am - - - - - SSW 33 39 18 21 - - -
30/12:30am - - - - - SSW 35 41 19 22 - - -
30/12:00am - - - - - SSW 33 43 18 23 - - -
 
Date/Time
EST
Temp
°C
App
Temp
°C
Dew
Point
Rel
Hum
%
Delta-T
°C
Wind Press
QNH
hPa
Press
MSL
hPa
Rain
since 9 am
mm
Dir
 
Spd
km/h
Gust
km/h
Spd
kts
Gust
kts
29/11:30pm - - - - - SSW 30 39 16 21 - - -
29/11:00pm - - - - - SW 32 39 17 21 - - -
29/10:30pm - - - - - SW 32 37 17 20 - - -
29/10:00pm - - - - - SSW 32 44 17 24 - - -
29/09:30pm - - - - - SSW 30 35 16 19 - - -
29/09:00pm - - - - - SSW 33 41 18 22 - - -
29/08:30pm - - - - - SW 30 33 16 18 - - -
29/08:00pm - - - - - SW 30 35 16 19 - - -
29/07:43pm - - - - - SW 28 46 15 25 - - -
29/07:30pm - - - - - SSW 24 30 13 16 - - -
29/07:00pm - - - - - SW 30 37 16 20 - - -
29/06:30pm - - - - - SW 33 43 18 23 - - -
29/06:00pm - - - - - SW 26 30 14 16 - - -
29/05:30pm - - - - - SSW 30 48 16 26 - - -
29/05:00pm - - - - - SSW 33 44 18 24 - - -
29/04:30pm - - - - - SSW 43 52 23 28 - - -
29/04:00pm - - - - - SSW 32 35 17 19 - - -
29/03:30pm - - - - - SSW 37 44 20 24 - - -
29/03:00pm - - - - - SW 30 37 16 20 - - -
29/02:30pm - - - - - SSW 44 54 24 29 - - -
29/02:20pm - - - - - SSW 32 54 17 29 - - -
29/02:00pm - - - - - SSW 37 54 20 29 - - -
29/01:30pm - - - - - SSW 33 41 18 22 - - -
29/01:00pm - - - - - WSW 30 35 16 19 - - -
29/12:30pm - - - - - WSW 33 41 18 22 - - -
29/12:00pm - - - - - WSW 33 43 18 23 - - -
29/11:30am - - - - - SW 35 44 19 24 - - -
29/11:00am - - - - - WSW 32 37 17 20 - - -
29/10:30am - - - - - WSW 30 37 16 20 - - -
29/10:00am - - - - - WSW 28 33 15 18 - - -
29/09:30am - - - - - WSW 28 33 15 18 - - -
29/09:00am - - - - - WSW 33 43 18 23 - - -
29/08:30am - - - - - SW 28 35 15 19 - - -
29/08:00am - - - - - SW 30 44 16 24 - - -
29/07:30am - - - - - WSW 26 35 14 19 - - -
29/07:00am - - - - - WSW 32 41 17 22 - - -
29/06:30am - - - - - SSW 33 41 18 22 - - -
29/06:00am - - - - - S 22 28 12 15 - - -

Other Formats:

Comma delimited format used in spreadsheet applications
http://www.bom.gov.au/fwo/IDV60801/IDV60801.95864.axf

JavaScript Object Notation format (JSON) in row-major order
http://www.bom.gov.au/fwo/IDV60801/IDV60801.95864.json